Time;durP1;ratioP1;P1;durP2;ratioP2;P2;SDS_P1;SDS_P2;PMS_P1;PMS_P2;Temp;Humidity;BMP_temperature;BMP_pressure;BME280_temperature;BME280_humidity;BME280_pressure;Samples;Min_cycle;Max_cycle;Signal;HPM_P1;HPM_P2
2022/05/27 00:01:09;;;;;;;30.50;4.88;;;14.60;99.90;;;;;;4966904;28;20063;-70
2022/05/27 00:03:36;;;;;;;28.48;5.13;;;14.60;99.90;;;;;;4980744;28;20043;-70
2022/05/27 00:06:02;;;;;;;30.50;5.82;;;14.50;99.90;;;;;;4973488;28;20046;-69
2022/05/27 00:08:28;;;;;;;25.70;5.47;;;14.50;99.90;;;;;;4973959;28;20082;-68
2022/05/27 00:10:59;;;;;;;22.08;4.72;;;14.50;99.90;;;;;;4975570;28;20066;-68
2022/05/27 00:13:25;;;;;;;22.85;4.63;;;14.50;99.90;;;;;;4970092;28;20102;-68
2022/05/27 00:15:51;;;;;;;21.35;4.88;;;14.40;99.90;;;;;;4967441;28;20042;-70
2022/05/27 00:18:17;;;;;;;23.65;4.53;;;14.30;99.90;;;;;;4973901;28;20125;-70
2022/05/27 00:20:43;;;;;;;27.67;4.72;;;14.30;99.90;;;;;;4974514;28;20382;-70
2022/05/27 00:23:09;;;;;;;27.65;5.20;;;14.20;99.90;;;;;;4975198;28;20099;-70
2022/05/27 00:25:35;;;;;;;12.80;3.58;;;14.20;99.90;;;;;;4975450;28;20141;-69
2022/05/27 00:28:00;;;;;;;21.42;4.30;;;14.20;99.90;;;;;;4974587;28;20038;-69
2022/05/27 00:30:27;;;;;;;26.27;4.63;;;14.20;99.90;;;;;;4976910;28;20050;-69
2022/05/27 00:32:54;;;;;;;14.65;4.15;;;14.20;99.90;;;;;;4973119;28;20416;-70
2022/05/27 00:35:21;;;;;;;21.42;4.45;;;14.10;99.90;;;;;;4974135;28;20078;-70
2022/05/27 00:37:46;;;;;;;22.02;4.45;;;14.00;99.90;;;;;;4956325;28;20047;-69
2022/05/27 00:40:13;;;;;;;20.10;4.50;;;14.00;99.90;;;;;;4974235;28;20093;-69
2022/05/27 00:42:42;;;;;;;19.40;5.18;;;14.00;99.90;;;;;;4974087;28;20414;-70
2022/05/27 00:45:15;;;;;;;20.40;4.43;;;14.00;99.90;;;;;;4974420;28;20050;-69
2022/05/27 00:47:42;;;;;;;23.20;4.30;;;13.90;99.90;;;;;;4972444;28;20067;-70
2022/05/27 00:50:12;;;;;;;19.75;3.95;;;14.00;99.90;;;;;;4974625;28;20501;-70
2022/05/27 00:52:39;;;;;;;21.05;4.80;;;13.90;99.90;;;;;;4973609;28;20043;-69
2022/05/27 00:55:12;;;;;;;26.40;4.90;;;13.90;99.90;;;;;;4973937;28;20046;-69
2022/05/27 00:57:48;;;;;;;18.92;4.47;;;13.80;99.90;;;;;;4974470;28;20405;-70
2022/05/27 01:00:20;;;;;;;19.88;4.15;;;13.80;99.90;;;;;;4968827;28;20436;-70
2022/05/27 01:02:47;;;;;;;21.23;3.70;;;13.70;99.90;;;;;;4972073;28;20516;-69
2022/05/27 01:05:16;;;;;;;16.75;3.90;;;13.70;99.90;;;;;;4974119;28;20039;-68
2022/05/27 01:07:41;;;;;;;17.70;3.50;;;13.80;99.90;;;;;;4973969;28;20051;-68
2022/05/27 01:10:11;;;;;;;15.95;4.45;;;13.70;99.90;;;;;;4977067;28;20089;-69
2022/05/27 01:12:37;;;;;;;27.65;3.90;;;13.70;99.90;;;;;;4978601;28;20512;-70
2022/05/27 01:15:14;;;;;;;14.75;3.75;;;13.70;99.90;;;;;;4959092;28;20048;-70
2022/05/27 01:17:49;;;;;;;14.60;3.33;;;13.60;99.90;;;;;;4970367;28;20181;-70
2022/05/27 01:20:23;;;;;;;21.05;3.97;;;13.60;99.90;;;;;;4973280;28;20085;-68
2022/05/27 01:23:20;;;;;;;14.52;3.70;;;13.50;99.90;;;;;;4965743;28;20082;-69
2022/05/27 01:26:11;;;;;;;17.70;3.90;;;13.50;99.90;;;;;;4955320;28;20490;-68
2022/05/27 01:28:47;;;;;;;14.50;3.40;;;13.50;99.90;;;;;;4965399;28;20371;-70
2022/05/27 01:31:43;;;;;;;18.52;4.30;;;13.40;99.90;;;;;;4975077;28;20047;-70
2022/05/27 01:34:40;;;;;;;15.18;3.53;;;13.40;99.90;;;;;;4973465;28;20133;-69
2022/05/27 01:37:11;;;;;;;24.17;4.63;;;13.30;99.90;;;;;;4973762;28;20509;-69
2022/05/27 01:39:52;;;;;;;20.15;4.40;;;13.30;99.90;;;;;;4973769;28;20050;-70
2022/05/27 01:42:34;;;;;;;20.17;4.30;;;13.30;99.90;;;;;;4969914;28;20054;-69
2022/05/27 01:45:06;;;;;;;18.80;3.78;;;13.20;99.90;;;;;;4973697;28;20134;-70
2022/05/27 01:47:40;;;;;;;14.35;3.35;;;13.20;99.90;;;;;;4971898;28;20455;-70
2022/05/27 01:50:19;;;;;;;16.48;3.60;;;13.10;99.90;;;;;;4954770;28;20698;-69
2022/05/27 01:53:08;;;;;;;20.48;3.42;;;13.10;99.90;;;;;;4970636;28;20051;-69
2022/05/27 01:56:15;;;;;;;19.58;3.72;;;13.00;99.90;;;;;;4972459;28;20089;-70
2022/05/27 01:58:49;;;;;;;11.35;3.17;;;12.90;99.90;;;;;;4973694;28;20050;-70
2022/05/27 02:01:23;;;;;;;16.00;3.30;;;12.90;99.90;;;;;;4971770;28;20133;-69
2022/05/27 02:03:59;;;;;;;18.67;3.30;;;12.80;99.90;;;;;;4973186;28;20053;-70
2022/05/27 02:06:40;;;;;;;20.50;3.70;;;12.80;99.90;;;;;;4972003;28;20508;-70
2022/05/27 02:09:31;;;;;;;15.00;3.50;;;12.80;99.90;;;;;;4974952;28;20126;-69
2022/05/27 02:12:04;;;;;;;15.57;3.30;;;12.80;99.90;;;;;;4973883;28;20042;-69
2022/05/27 02:14:46;;;;;;;15.32;3.30;;;12.70;99.90;;;;;;4965705;28;20050;-69
2022/05/27 02:17:16;;;;;;;17.20;3.85;;;12.70;99.90;;;;;;4953159;28;20525;-70
2022/05/27 02:20:08;;;;;;;18.08;4.15;;;12.60;99.90;;;;;;4970015;28;20371;-69
2022/05/27 02:22:47;;;;;;;20.95;3.17;;;12.60;99.90;;;;;;4971691;28;20516;-71
2022/05/27 02:25:37;;;;;;;18.00;3.17;;;12.50;99.90;;;;;;4973085;28;20051;-70
2022/05/27 02:28:15;;;;;;;13.75;3.25;;;12.50;99.90;;;;;;4971854;28;20035;-71
2022/05/27 02:30:44;;;;;;;17.80;3.28;;;12.50;99.90;;;;;;4973629;28;20054;-69
2022/05/27 02:36:05;;;;;;;15.18;3.00;;;12.40;99.90;;;;;;4971602;28;20053;-69
2022/05/27 02:38:31;;;;;;;19.45;3.42;;;12.30;99.90;;;;;;4987413;28;20470;-69
2022/05/27 02:41:04;;;;;;;16.80;3.83;;;12.30;99.90;;;;;;4972063;28;20515;-69
2022/05/27 02:43:49;;;;;;;16.60;3.53;;;12.30;99.90;;;;;;4972489;28;20051;-68
2022/05/27 02:46:32;;;;;;;18.40;3.92;;;12.30;99.90;;;;;;4971898;28;20047;-69
2022/05/27 02:49:12;;;;;;;16.30;3.13;;;12.20;99.90;;;;;;4970472;28;20051;-70
2022/05/27 02:51:57;;;;;;;21.10;3.20;;;12.20;99.90;;;;;;4956623;28;20058;-69
2022/05/27 02:54:32;;;;;;;19.80;3.35;;;12.20;99.90;;;;;;4972660;28;20043;-70
2022/05/27 02:57:37;;;;;;;14.02;3.00;;;12.10;99.90;;;;;;4971390;28;20400;-69
2022/05/27 03:00:10;;;;;;;16.67;2.88;;;12.10;99.90;;;;;;4956678;28;20050;-69
2022/05/27 03:02:36;;;;;;;14.73;3.83;;;12.00;99.90;;;;;;4971796;28;20101;-69
2022/05/27 03:05:02;;;;;;;24.48;3.55;;;12.00;99.90;;;;;;4971748;28;20042;-69
2022/05/27 03:07:57;;;;;;;15.23;3.55;;;12.00;99.90;;;;;;4987287;28;20075;-70
2022/05/27 03:10:31;;;;;;;20.98;3.75;;;12.00;99.90;;;;;;4971052;28;20521;-68
2022/05/27 03:13:19;;;;;;;16.40;3.05;;;11.90;99.90;;;;;;4972364;28;20141;-69
2022/05/27 03:16:08;;;;;;;16.00;3.70;;;11.90;99.90;;;;;;4986945;28;20046;-70
2022/05/27 03:18:55;;;;;;;16.50;3.72;;;11.90;99.90;;;;;;4970039;28;20078;-70
2022/05/27 03:21:42;;;;;;;16.92;3.78;;;11.80;99.90;;;;;;4972851;28;20456;-70
2022/05/27 03:24:21;;;;;;;18.63;3.25;;;11.80;99.90;;;;;;4972244;28;20101;-69
2022/05/27 03:27:19;;;;;;;16.77;3.42;;;11.80;99.90;;;;;;4971322;28;20035;-69
2022/05/27 03:29:53;;;;;;;14.45;3.45;;;11.80;99.90;;;;;;4967088;28;20134;-69
2022/05/27 03:32:30;;;;;;;17.95;3.70;;;11.80;99.90;;;;;;4963737;28;20382;-69
2022/05/27 03:35:16;;;;;;;12.65;3.75;;;11.80;99.90;;;;;;4972154;28;20051;-70
2022/05/27 03:37:46;;;;;;;22.75;3.53;;;11.80;99.90;;;;;;4970160;28;20049;-70
2022/05/27 03:40:26;;;;;;;22.33;4.10;;;12.20;99.90;;;;;;4972447;28;20050;-70
2022/05/27 03:42:53;;;;;;;22.95;3.55;;;11.80;99.90;;;;;;4966857;28;20062;-71
2022/05/27 03:45:22;;;;;;;13.40;3.13;;;11.80;99.90;;;;;;4972844;28;20129;-69
2022/05/27 03:47:49;;;;;;;14.65;3.33;;;11.80;99.90;;;;;;4970772;28;20047;-70
2022/05/27 03:50:18;;;;;;;15.95;3.53;;;11.80;99.90;;;;;;4971471;28;20039;-70
2022/05/27 03:52:47;;;;;;;12.50;2.75;;;11.80;99.90;;;;;;4971326;28;20042;-70
2022/05/27 03:55:15;;;;;;;14.30;3.05;;;11.80;99.90;;;;;;4968868;28;20498;-69
2022/05/27 03:57:41;;;;;;;11.45;2.90;;;11.80;99.90;;;;;;4970029;28;20093;-67
2022/05/27 04:00:08;;;;;;;15.27;2.90;;;11.90;99.90;;;;;;4971575;28;20046;-69
2022/05/27 04:02:33;;;;;;;19.67;3.50;;;11.90;99.90;;;;;;4970712;28;20078;-70
2022/05/27 04:04:59;;;;;;;19.67;3.97;;;11.90;99.90;;;;;;4971134;28;20103;-69
2022/05/27 04:07:24;;;;;;;14.30;3.40;;;12.00;99.90;;;;;;4970776;28;20072;-69
2022/05/27 04:09:50;;;;;;;22.48;3.95;;;11.90;99.90;;;;;;4986335;28;20039;-70
2022/05/27 04:12:16;;;;;;;22.15;3.83;;;12.00;99.90;;;;;;4970527;28;20046;-69
2022/05/27 04:14:42;;;;;;;13.15;3.35;;;12.00;99.90;;;;;;4973613;28;20035;-69
2022/05/27 04:19:52;;;;;;;21.35;3.15;;;12.10;99.90;;;;;;4975325;28;20046;-69
2022/05/27 04:22:18;;;;;;;11.80;3.15;;;12.00;99.90;;;;;;4957085;28;20402;-69
2022/05/27 04:24:43;;;;;;;14.15;3.00;;;12.00;99.90;;;;;;4975275;28;20074;-69
2022/05/27 04:27:11;;;;;;;17.50;3.72;;;12.10;99.90;;;;;;4974935;28;20043;-69
2022/05/27 04:29:44;;;;;;;18.83;3.22;;;12.00;99.90;;;;;;4976615;28;20093;-70
2022/05/27 04:32:10;;;;;;;16.85;2.83;;;12.10;99.90;;;;;;4973501;28;20410;-69
2022/05/27 04:34:36;;;;;;;14.05;3.35;;;12.10;99.90;;;;;;4973836;28;20129;-69
2022/05/27 04:37:02;;;;;;;13.38;3.33;;;12.00;99.90;;;;;;4974980;28;20118;-69
2022/05/27 04:39:28;;;;;;;19.67;3.67;;;12.00;99.90;;;;;;4974253;28;20149;-69
2022/05/27 04:41:53;;;;;;;16.48;3.83;;;12.00;99.90;;;;;;4974373;28;20031;-69
2022/05/27 04:44:19;;;;;;;15.05;3.38;;;12.00;99.90;;;;;;4973364;28;20042;-69
2022/05/27 04:46:45;;;;;;;16.65;3.78;;;12.00;99.90;;;;;;4975084;28;20042;-68
2022/05/27 04:51:59;;;;;;;18.90;2.90;;;12.10;99.90;;;;;;4972655;28;20131;-71
2022/05/27 04:54:26;;;;;;;16.13;3.58;;;12.20;99.90;;;;;;4974930;28;20054;-70
2022/05/27 04:56:52;;;;;;;16.50;3.08;;;12.20;99.90;;;;;;4975545;28;20101;-69
2022/05/27 04:59:18;;;;;;;18.08;3.20;;;12.30;99.90;;;;;;4972950;28;20645;-70
2022/05/27 05:01:44;;;;;;;17.67;3.50;;;12.30;99.90;;;;;;4974067;28;20130;-70
2022/05/27 05:04:09;;;;;;;16.40;4.00;;;12.30;99.90;;;;;;4959833;28;20090;-70
2022/05/27 05:06:35;;;;;;;22.92;3.33;;;12.40;99.90;;;;;;4972322;28;20425;-69
2022/05/27 05:09:01;;;;;;;17.08;3.35;;;12.30;99.90;;;;;;4973607;28;20046;-70
2022/05/27 05:11:26;;;;;;;12.20;2.97;;;12.30;99.90;;;;;;4974894;28;20043;-69
2022/05/27 05:13:52;;;;;;;12.68;3.10;;;12.30;99.90;;;;;;4972608;28;20512;-71
2022/05/27 05:16:17;;;;;;;15.40;3.63;;;12.30;99.90;;;;;;4975234;28;20043;-69
2022/05/27 05:18:43;;;;;;;19.40;3.60;;;12.40;99.90;;;;;;4971906;28;20051;-70
2022/05/27 05:21:09;;;;;;;16.92;3.50;;;12.30;99.90;;;;;;4974537;28;20042;-69
2022/05/27 05:23:34;;;;;;;17.67;3.47;;;12.40;99.90;;;;;;4972750;28;20038;-70
2022/05/27 05:26:00;;;;;;;15.13;3.10;;;12.50;99.90;;;;;;4974288;28;20042;-68
2022/05/27 05:28:26;;;;;;;19.17;3.75;;;12.40;99.90;;;;;;4973144;28;20121;-72
2022/05/27 05:30:51;;;;;;;14.30;3.13;;;12.40;99.90;;;;;;4989199;28;20039;-69
2022/05/27 05:33:17;;;;;;;12.88;2.80;;;12.40;99.90;;;;;;4972734;28;20520;-69
2022/05/27 05:35:43;;;;;;;15.50;3.30;;;12.40;99.90;;;;;;4973170;28;20035;-70
2022/05/27 05:38:08;;;;;;;18.15;3.20;;;12.30;99.90;;;;;;4972450;28;20042;-69
2022/05/27 05:40:34;;;;;;;16.23;3.50;;;12.80;99.90;;;;;;4972920;28;20122;-69
2022/05/27 05:43:01;;;;;;;15.90;3.20;;;12.40;99.90;;;;;;4973606;28;20075;-70
2022/05/27 05:45:27;;;;;;;13.82;3.05;;;12.40;99.90;;;;;;4988781;28;20133;-69
2022/05/27 05:47:52;;;;;;;13.52;3.55;;;12.50;99.90;;;;;;4973402;28;20545;-69
2022/05/27 05:50:18;;;;;;;15.27;3.00;;;12.60;99.90;;;;;;4973998;28;20486;-69
2022/05/27 05:52:45;;;;;;;14.05;3.20;;;12.70;99.90;;;;;;4955119;28;20489;-68
2022/05/27 05:55:12;;;;;;;11.18;3.13;;;12.80;99.90;;;;;;4973486;28;20047;-68
2022/05/27 05:57:41;;;;;;;15.23;3.45;;;12.90;99.90;;;;;;4972385;28;20112;-68
2022/05/27 06:00:12;;;;;;;17.48;3.47;;;13.20;99.90;;;;;;4974093;28;20041;-69
2022/05/27 06:02:38;;;;;;;21.20;3.47;;;13.00;99.90;;;;;;4972692;28;20051;-69
2022/05/27 06:05:04;;;;;;;17.15;3.63;;;13.10;99.90;;;;;;4943189;28;20047;-68
2022/05/27 06:07:31;;;;;;;15.48;3.50;;;13.20;99.90;;;;;;4985518;28;20066;-69
2022/05/27 06:09:57;;;;;;;14.57;3.35;;;13.60;99.90;;;;;;4972809;28;20142;-69
2022/05/27 06:12:24;;;;;;;18.98;3.35;;;13.40;99.90;;;;;;4973721;28;20047;-70
2022/05/27 06:14:56;;;;;;;15.65;3.63;;;13.50;99.90;;;;;;4974074;28;20706;-71
2022/05/27 06:17:22;;;;;;;19.60;3.90;;;13.70;99.90;;;;;;4972246;28;20398;-69
2022/05/27 06:19:48;;;;;;;14.77;3.55;;;13.70;99.90;;;;;;4969589;28;20046;-69
2022/05/27 06:22:13;;;;;;;16.90;3.60;;;13.70;99.90;;;;;;4973345;28;20081;-71
2022/05/27 06:24:39;;;;;;;19.95;4.15;;;13.70;99.90;;;;;;4973447;28;20431;-69
2022/05/27 06:27:06;;;;;;;15.10;2.83;;;13.70;99.90;;;;;;4973103;28;20046;-69
2022/05/27 06:35:01;;;;;;;11.88;3.00;;;13.90;99.90;;;;;;4971327;28;20461;-71
2022/05/27 06:37:27;;;;;;;19.90;3.45;;;13.90;99.90;;;;;;4970346;28;20043;-69
2022/05/27 06:39:53;;;;;;;20.98;3.78;;;13.90;99.90;;;;;;4973141;28;20042;-69
2022/05/27 06:42:19;;;;;;;13.23;2.95;;;13.90;99.90;;;;;;4970098;28;20490;-68
2022/05/27 06:44:45;;;;;;;18.40;3.45;;;14.00;99.90;;;;;;4972993;28;20035;-69
2022/05/27 06:47:13;;;;;;;10.68;3.10;;;14.00;99.90;;;;;;4971405;28;20490;-69
2022/05/27 06:49:39;;;;;;;;;;;14.10;99.90;;;;;;4966514;28;20070;-69
2022/05/27 06:52:07;;;;;;;22.38;3.60;;;14.10;99.90;;;;;;4964597;28;19922;-69
2022/05/27 06:54:34;;;;;;;14.65;3.80;;;14.20;99.90;;;;;;4962506;28;20109;-69
2022/05/27 06:57:00;;;;;;;19.07;3.43;;;14.10;99.90;;;;;;4970687;28;20047;-71
2022/05/27 06:59:26;;;;;;;21.27;4.03;;;14.10;99.90;;;;;;4978649;28;20130;-69
2022/05/27 07:01:51;;;;;;;21.92;4.40;;;14.10;99.90;;;;;;4969724;28;20169;-69
2022/05/27 07:04:20;;;;;;;20.55;3.72;;;14.10;99.90;;;;;;4971341;28;20039;-70
2022/05/27 07:06:48;;;;;;;16.38;3.25;;;14.10;99.20;;;;;;4954108;28;20055;-70
2022/05/27 07:09:19;;;;;;;15.43;3.53;;;14.20;97.60;;;;;;4970235;28;20501;-69
2022/05/27 07:11:47;;;;;;;20.20;3.20;;;14.20;98.50;;;;;;4965761;28;20043;-70
2022/05/27 07:14:13;;;;;;;19.08;3.53;;;14.20;97.60;;;;;;4972281;28;20057;-70
2022/05/27 07:16:40;;;;;;;18.67;3.75;;;14.30;97.10;;;;;;4971291;28;20425;-69
2022/05/27 07:19:06;;;;;;;16.02;3.88;;;14.50;97.10;;;;;;4970744;28;20051;-69
2022/05/27 07:21:43;;;;;;;14.95;3.22;;;14.50;96.60;;;;;;4971717;28;20461;-69
2022/05/27 07:24:13;;;;;;;41.45;3.83;;;14.60;96.40;;;;;;4971573;28;20051;-69
2022/05/27 07:26:39;;;;;;;11.77;3.10;;;14.70;95.50;;;;;;4972518;28;20043;-70
2022/05/27 07:29:07;;;;;;;22.77;3.33;;;14.70;95.70;;;;;;4970724;28;20043;-69
2022/05/27 07:31:34;;;;;;;;;;;14.70;96.70;;;;;;4963145;28;20362;-70
2022/05/27 07:33:59;;;;;;;17.25;3.33;;;14.60;97.70;;;;;;4970728;28;20372;-69
2022/05/27 07:36:25;;;;;;;16.77;3.83;;;14.60;98.30;;;;;;4970603;28;20050;-69
2022/05/27 07:38:52;;;;;;;22.80;3.92;;;14.40;98.60;;;;;;4970541;28;20490;-68
2022/05/27 07:41:19;;;;;;;14.32;3.30;;;14.40;98.60;;;;;;4951674;28;20105;-69
2022/05/27 07:43:45;;;;;;;19.35;3.75;;;14.60;98.70;;;;;;4966931;28;20125;-69
2022/05/27 07:46:11;;;;;;;16.27;3.80;;;14.70;98.10;;;;;;4972901;28;20047;-69
2022/05/27 07:48:37;;;;;;;11.82;3.10;;;14.80;98.10;;;;;;4976336;28;20135;-69
2022/05/27 07:51:03;;;;;;;21.15;4.15;;;14.80;98.50;;;;;;4965412;28;20526;-68
2022/05/27 07:53:29;;;;;;;15.80;3.67;;;14.80;99.90;;;;;;4968549;28;20085;-69
2022/05/27 07:55:54;;;;;;;15.80;3.72;;;14.60;98.60;;;;;;4974100;28;20035;-70
2022/05/27 07:58:20;;;;;;;14.73;3.65;;;14.60;99.10;;;;;;4968950;28;20047;-70
2022/05/27 08:00:46;;;;;;;12.00;3.03;;;14.80;99.40;;;;;;4974547;28;20074;-68
2022/05/27 08:03:12;;;;;;;13.75;3.22;;;14.90;98.60;;;;;;4974677;28;20081;-70
2022/05/27 08:05:39;;;;;;;17.80;4.13;;;15.10;99.20;;;;;;4970381;28;20058;-69
2022/05/27 08:08:06;;;;;;;17.65;3.17;;;15.20;97.90;;;;;;4974835;28;20592;-69
2022/05/27 08:10:35;;;;;;;18.65;3.45;;;15.20;97.50;;;;;;4976296;28;20485;-70
2022/05/27 08:13:01;;;;;;;22.08;3.60;;;15.20;98.30;;;;;;4975247;28;20054;-68
2022/05/27 08:15:28;;;;;;;15.20;3.75;;;15.20;96.60;;;;;;4974474;28;20042;-70
2022/05/27 08:17:54;;;;;;;16.63;3.88;;;15.20;97.30;;;;;;4974013;28;20041;-71
2022/05/27 08:20:23;;;;;;;18.33;2.90;;;15.30;97.20;;;;;;4974202;28;20401;-69
2022/05/27 08:22:49;;;;;;;15.57;2.95;;;15.30;95.70;;;;;;4970021;28;20047;-69
2022/05/27 08:25:16;;;;;;;11.25;3.35;;;15.30;96.40;;;;;;4970142;28;20400;-69
2022/05/27 08:27:43;;;;;;;13.73;3.03;;;15.30;97.00;;;;;;4961096;28;20418;-70
2022/05/27 08:30:18;;;;;;;12.60;3.60;;;15.40;97.40;;;;;;4972134;28;20042;-70
2022/05/27 08:32:47;;;;;;;15.70;3.05;;;15.50;96.50;;;;;;4973086;28;20042;-69
2022/05/27 08:38:03;;;;;;;15.00;3.30;;;15.60;96.10;;;;;;4972579;28;20059;-68
2022/05/27 08:40:47;;;;;;;15.10;3.20;;;15.60;94.30;;;;;;4990139;28;20039;-69
2022/05/27 08:43:50;;;;;;;13.30;3.30;;;15.60;96.10;;;;;;4973845;28;20065;-68
2022/05/27 08:46:41;;;;;;;13.43;3.30;;;15.80;95.40;;;;;;4974428;28;20084;-68
2022/05/27 08:49:12;;;;;;;14.45;3.72;;;15.70;95.70;;;;;;4975097;28;20142;-69
2022/05/27 08:51:45;;;;;;;16.25;3.78;;;15.50;97.20;;;;;;4998778;28;20045;-69
2022/05/27 08:54:15;;;;;;;8.85;2.85;;;15.50;96.70;;;;;;4975535;28;20089;-68
2022/05/27 08:59:41;;;;;;;17.65;3.47;;;15.60;96.90;;;;;;4972636;28;20413;-69
2022/05/27 09:02:15;;;;;;;16.33;3.65;;;15.50;97.00;;;;;;4972987;28;20050;-69
2022/05/27 09:04:44;;;;;;;16.58;3.33;;;16.10;97.80;;;;;;4990040;28;20058;-68
2022/05/27 09:07:43;;;;;;;13.65;3.40;;;15.70;96.30;;;;;;4973147;28;20042;-71
2022/05/27 09:10:20;;;;;;;19.98;3.90;;;15.50;96.20;;;;;;4974945;28;20493;-68
2022/05/27 09:13:10;;;;;;;17.00;3.67;;;15.40;97.20;;;;;;4974395;28;20126;-69
2022/05/27 09:15:36;;;;;;;17.30;3.65;;;15.40;96.60;;;;;;4971937;28;20047;-69
2022/05/27 09:18:12;;;;;;;18.83;3.47;;;15.40;97.20;;;;;;4973442;28;20054;-69
2022/05/27 09:20:56;;;;;;;15.63;3.72;;;15.40;98.30;;;;;;4973449;28;20047;-68
2022/05/27 09:23:39;;;;;;;18.13;3.85;;;15.60;97.10;;;;;;4972520;28;20082;-68
2022/05/27 09:26:23;;;;;;;16.35;3.92;;;15.60;96.50;;;;;;4973499;28;20043;-70
2022/05/27 09:29:01;;;;;;;16.00;3.60;;;15.60;96.00;;;;;;4972386;28;20370;-70
2022/05/27 09:31:41;;;;;;;17.65;3.25;;;15.70;96.30;;;;;;4972856;28;20043;-69
2022/05/27 09:34:10;;;;;;;22.25;3.75;;;15.70;96.50;;;;;;4965121;28;20121;-70
2022/05/27 09:36:41;;;;;;;12.35;3.35;;;15.80;96.10;;;;;;4968868;28;20046;-69
2022/05/27 09:39:11;;;;;;;17.33;3.63;;;15.80;96.20;;;;;;4972819;28;20046;-68
2022/05/27 09:41:58;;;;;;;17.83;3.80;;;15.70;95.50;;;;;;4974455;28;20449;-67
2022/05/27 09:44:38;;;;;;;17.15;3.97;;;15.70;96.40;;;;;;4974007;28;20054;-69
2022/05/27 09:47:04;;;;;;;15.57;3.42;;;15.60;97.20;;;;;;4957699;28;20389;-69
2022/05/27 09:49:31;;;;;;;21.45;3.33;;;15.90;97.20;;;;;;4995507;28;20048;-69
2022/05/27 09:51:57;;;;;;;18.52;4.00;;;16.20;95.80;;;;;;4973072;28;20054;-69
2022/05/27 09:54:44;;;;;;;16.55;3.58;;;16.20;95.50;;;;;;4973399;28;20062;-68
2022/05/27 09:57:10;;;;;;;17.38;3.60;;;16.40;95.60;;;;;;4972237;28;20078;-69
2022/05/27 09:59:53;;;;;;;12.55;3.28;;;16.30;96.40;;;;;;4973572;28;20092;-69
2022/05/27 10:02:33;;;;;;;14.52;3.92;;;16.30;95.00;;;;;;4971299;28;20171;-69
2022/05/27 10:04:58;;;;;;;15.23;3.08;;;16.20;95.10;;;;;;4972055;28;20039;-68
2022/05/27 10:07:57;;;;;;;21.50;3.42;;;16.30;94.80;;;;;;4971965;28;20074;-68
2022/05/27 10:10:26;;;;;;;14.57;3.45;;;16.20;94.40;;;;;;4974779;28;20105;-69
2022/05/27 10:12:53;;;;;;;16.77;4.10;;;16.00;95.20;;;;;;4969397;28;20102;-69
2022/05/27 10:15:38;;;;;;;16.65;3.72;;;16.00;95.50;;;;;;4973029;28;20374;-68
2022/05/27 10:18:22;;;;;;;13.80;3.22;;;16.10;95.60;;;;;;4964964;28;20058;-69
2022/05/27 10:21:10;;;;;;;17.33;3.85;;;16.00;95.00;;;;;;4977666;28;20333;-69
2022/05/27 10:23:39;;;;;;;18.55;4.00;;;15.80;95.30;;;;;;4976752;28;20053;-70
2022/05/27 10:26:23;;;;;;;24.30;3.92;;;15.90;95.60;;;;;;4974125;28;20051;-69
2022/05/27 10:29:16;;;;;;;15.23;3.75;;;16.10;95.60;;;;;;4967365;28;20115;-69
2022/05/27 10:31:53;;;;;;;18.48;3.33;;;16.00;95.70;;;;;;4971453;28;20054;-69
2022/05/27 10:34:40;;;;;;;23.08;4.32;;;15.70;95.30;;;;;;4961539;28;20050;-69
2022/05/27 10:37:12;;;;;;;17.92;4.47;;;15.80;96.00;;;;;;4982746;28;20046;-69
2022/05/27 10:39:56;;;;;;;15.57;3.97;;;16.00;97.30;;;;;;4969817;28;20122;-69
2022/05/27 10:42:49;;;;;;;20.58;3.65;;;16.10;96.80;;;;;;4970391;28;20480;-70
2022/05/27 10:45:31;;;;;;;21.55;4.10;;;16.20;95.20;;;;;;4980220;28;20133;-69
2022/05/27 10:48:27;;;;;;;11.43;3.15;;;16.00;96.50;;;;;;4966624;28;20137;-70
2022/05/27 10:51:02;;;;;;;19.00;3.70;;;16.10;97.20;;;;;;4969844;28;20405;-68
2022/05/27 10:53:28;;;;;;;16.27;3.53;;;16.20;97.20;;;;;;4978189;28;20464;-68
2022/05/27 10:56:29;;;;;;;18.58;3.90;;;16.20;96.10;;;;;;4968715;28;20040;-68
2022/05/27 11:02:10;;;;;;;15.25;3.35;;;16.60;95.20;;;;;;4978816;28;20042;-69
2022/05/27 11:05:09;;;;;;;19.48;4.10;;;16.60;95.00;;;;;;4969594;28;20440;-69
2022/05/27 11:08:06;;;;;;;23.65;3.70;;;16.50;96.60;;;;;;4970652;28;20062;-68
2022/05/27 11:10:59;;;;;;;14.15;3.05;;;16.50;95.90;;;;;;4962555;28;20062;-68
2022/05/27 11:16:58;;;;;;;19.98;3.70;;;16.70;95.20;;;;;;4968283;28;20149;-69
2022/05/27 11:19:26;;;;;;;19.98;3.65;;;16.60;94.50;;;;;;4966992;28;20386;-68
2022/05/27 11:21:58;;;;;;;19.98;3.47;;;16.40;94.50;;;;;;4967393;28;20042;-72
2022/05/27 11:24:57;;;;;;;19.33;3.85;;;16.40;93.80;;;;;;4974242;28;20543;-69
2022/05/27 11:27:33;;;;;;;12.45;2.67;;;16.70;95.70;;;;;;4975339;28;20053;-70
2022/05/27 11:30:23;;;;;;;22.92;4.55;;;16.90;93.90;;;;;;4972848;28;20466;-68
2022/05/27 11:33:08;;;;;;;16.75;3.95;;;16.60;94.00;;;;;;4973998;28;20042;-69
2022/05/27 11:36:11;;;;;;;18.90;4.05;;;16.40;94.50;;;;;;4974318;28;20047;-68
2022/05/27 11:39:01;;;;;;;21.52;3.72;;;16.30;95.10;;;;;;4974140;28;20047;-68
2022/05/27 11:41:39;;;;;;;18.17;4.20;;;16.20;95.70;;;;;;4970930;28;20054;-69
2022/05/27 11:44:29;;;;;;;22.33;3.72;;;16.10;95.30;;;;;;4971861;28;20409;-68
2022/05/27 11:47:19;;;;;;;16.40;3.53;;;16.10;95.40;;;;;;4988774;28;20501;-70
2022/05/27 11:50:12;;;;;;;16.23;3.45;;;16.00;95.50;;;;;;4973554;28;20063;-69
2022/05/27 11:52:50;;;;;;;20.85;3.70;;;15.80;96.70;;;;;;4974930;28;20054;-67
2022/05/27 11:55:37;;;;;;;17.73;3.70;;;15.80;95.90;;;;;;4974455;28;20057;-69
2022/05/27 11:58:47;;;;;;;11.10;2.95;;;15.80;96.30;;;;;;4988404;28;20042;-69
2022/05/27 12:01:35;;;;;;;18.13;3.25;;;15.80;95.60;;;;;;4966435;28;20530;-69
2022/05/27 12:04:07;;;;;;;15.15;3.35;;;15.80;95.70;;;;;;4977273;28;20051;-69
2022/05/27 12:06:56;;;;;;;12.40;3.30;;;15.70;96.40;;;;;;4974061;28;20412;-70
2022/05/27 12:09:41;;;;;;;12.48;2.97;;;15.70;96.60;;;;;;4981801;28;20513;-70
2022/05/27 12:12:11;;;;;;;13.70;2.80;;;15.70;96.40;;;;;;4961594;28;20038;-68
2022/05/27 12:14:46;;;;;;;16.08;3.20;;;15.70;96.30;;;;;;4965881;28;20074;-69
2022/05/27 12:17:20;;;;;;;17.60;3.28;;;15.70;96.20;;;;;;4970793;28;20053;-69
2022/05/27 12:19:59;;;;;;;16.25;3.35;;;15.60;97.00;;;;;;4966453;28;20420;-70
2022/05/27 12:22:30;;;;;;;22.45;4.18;;;15.60;96.90;;;;;;4975575;28;20153;-70
2022/05/27 12:25:19;;;;;;;16.92;3.65;;;15.60;97.00;;;;;;4972391;28;20408;-70
2022/05/27 12:27:46;;;;;;;19.33;3.97;;;15.50;96.40;;;;;;4988777;28;20354;-70
2022/05/27 12:30:16;;;;;;;15.40;3.42;;;15.50;96.70;;;;;;4970754;28;20499;-69
2022/05/27 12:32:44;;;;;;;18.48;3.78;;;15.60;97.00;;;;;;4971560;28;20424;-69
2022/05/27 12:35:43;;;;;;;21.67;4.35;;;15.90;97.90;;;;;;4969689;28;20050;-68
2022/05/27 12:38:21;;;;;;;16.27;3.33;;;16.40;98.50;;;;;;4962793;28;20074;-69
2022/05/27 12:41:02;;;;;;;15.25;3.13;;;16.90;98.00;;;;;;4966483;28;20051;-69
2022/05/27 12:43:53;;;;;;;17.17;3.70;;;17.20;94.00;;;;;;4972745;28;20047;-69
2022/05/27 12:46:29;;;;;;;22.20;4.80;;;17.00;94.60;;;;;;4968417;28;20034;-67
2022/05/27 12:49:37;;;;;;;21.80;3.97;;;16.70;94.50;;;;;;4976084;28;20420;-70
2022/05/27 12:52:28;;;;;;;11.38;3.47;;;16.30;95.80;;;;;;4973599;28;20055;-69
2022/05/27 12:54:54;;;;;;;14.32;3.13;;;16.20;95.50;;;;;;4973085;28;20490;-69
2022/05/27 13:03:35;;;;;;;14.20;3.05;;;15.80;94.50;;;;;;4976113;28;20519;-69
2022/05/27 13:06:32;;;;;;;17.23;2.90;;;15.90;94.80;;;;;;4971337;28;20058;-70
2022/05/27 13:09:33;;;;;;;16.33;3.05;;;15.90;94.70;;;;;;4975554;28;20080;-70
2022/05/27 13:11:59;;;;;;;17.88;3.33;;;16.10;97.10;;;;;;4972638;28;20081;-70
2022/05/27 13:14:42;;;;;;;23.67;3.60;;;16.10;95.10;;;;;;4972671;28;20051;-69
2022/05/27 13:17:31;;;;;;;14.10;2.83;;;16.30;94.70;;;;;;4967883;28;20489;-69
2022/05/27 13:20:21;;;;;;;18.48;3.58;;;16.30;94.70;;;;;;4965939;28;20042;-69
2022/05/27 13:22:58;;;;;;;13.02;3.03;;;16.20;94.90;;;;;;4973393;28;20047;-70
2022/05/27 13:25:39;;;;;;;21.13;4.07;;;16.00;95.10;;;;;;4948707;28;20035;-68
2022/05/27 13:28:22;;;;;;;20.98;4.00;;;15.90;95.50;;;;;;4966816;28;20050;-68
2022/05/27 13:31:11;;;;;;;13.27;3.20;;;15.90;95.30;;;;;;4969714;28;20058;-69
2022/05/27 13:34:00;;;;;;;18.43;4.23;;;16.10;95.60;;;;;;4963975;28;20134;-69
2022/05/27 13:36:40;;;;;;;17.48;3.83;;;16.20;94.60;;;;;;4969944;28;20807;-68
2022/05/27 13:39:10;;;;;;;16.25;3.60;;;16.40;98.10;;;;;;4966587;28;20381;-69
2022/05/27 13:41:41;;;;;;;17.95;3.83;;;16.60;95.20;;;;;;4965743;28;20137;-69
2022/05/27 13:44:10;;;;;;;17.98;3.38;;;16.80;94.50;;;;;;4967945;28;20197;-69
2022/05/27 13:46:40;;;;;;;14.55;3.40;;;16.50;94.40;;;;;;4969348;28;20449;-69